sensor_id;sensor_type;location;lat;lon;timestamp;P1;durP1;ratioP1;P2;durP2;ratioP2
79139;SDS011;68546;59.142;37.948;2023-03-13T00:01:11;12.50;;;8.80;;
79139;SDS011;68546;59.142;37.948;2023-03-13T00:03:47;11.77;;;10.13;;
79139;SDS011;68546;59.142;37.948;2023-03-13T00:06:13;11.02;;;8.98;;
79139;SDS011;68546;59.142;37.948;2023-03-13T00:08:40;9.57;;;8.50;;
79139;SDS011;68546;59.142;37.948;2023-03-13T00:11:08;11.03;;;9.60;;
79139;SDS011;68546;59.142;37.948;2023-03-13T00:13:36;11.57;;;8.68;;
79139;SDS011;68546;59.142;37.948;2023-03-13T00:16:04;10.88;;;9.07;;
79139;SDS011;68546;59.142;37.948;2023-03-13T00:18:35;11.07;;;9.88;;
79139;SDS011;68546;59.142;37.948;2023-03-13T00:21:06;13.45;;;11.15;;
79139;SDS011;68546;59.142;37.948;2023-03-13T00:23:34;11.70;;;10.45;;
79139;SDS011;68546;59.142;37.948;2023-03-13T00:26:05;11.77;;;9.57;;
79139;SDS011;68546;59.142;37.948;2023-03-13T00:28:37;15.53;;;10.27;;
79139;SDS011;68546;59.142;37.948;2023-03-13T00:31:09;11.90;;;10.23;;
79139;SDS011;68546;59.142;37.948;2023-03-13T00:33:40;12.02;;;9.90;;
79139;SDS011;68546;59.142;37.948;2023-03-13T00:36:11;11.43;;;10.13;;
79139;SDS011;68546;59.142;37.948;2023-03-13T00:38:40;11.70;;;9.98;;
79139;SDS011;68546;59.142;37.948;2023-03-13T00:41:12;11.15;;;9.98;;
79139;SDS011;68546;59.142;37.948;2023-03-13T00:43:46;14.35;;;10.95;;
79139;SDS011;68546;59.142;37.948;2023-03-13T00:46:15;13.95;;;11.18;;
79139;SDS011;68546;59.142;37.948;2023-03-13T00:48:43;31.17;;;13.02;;
79139;SDS011;68546;59.142;37.948;2023-03-13T00:51:12;14.43;;;12.90;;
79139;SDS011;68546;59.142;37.948;2023-03-13T00:53:40;14.73;;;13.13;;
79139;SDS011;68546;59.142;37.948;2023-03-13T00:56:09;15.90;;;13.38;;
79139;SDS011;68546;59.142;37.948;2023-03-13T00:58:38;17.33;;;14.05;;
79139;SDS011;68546;59.142;37.948;2023-03-13T01:01:10;15.90;;;14.17;;
79139;SDS011;68546;59.142;37.948;2023-03-13T01:03:59;19.70;;;16.35;;
79139;SDS011;68546;59.142;37.948;2023-03-13T01:06:29;19.42;;;15.20;;
79139;SDS011;68546;59.142;37.948;2023-03-13T01:08:57;17.85;;;14.35;;
79139;SDS011;68546;59.142;37.948;2023-03-13T01:11:26;20.60;;;15.43;;
79139;SDS011;68546;59.142;37.948;2023-03-13T01:14:00;16.17;;;14.15;;
79139;SDS011;68546;59.142;37.948;2023-03-13T01:16:30;16.48;;;14.10;;
79139;SDS011;68546;59.142;37.948;2023-03-13T01:18:58;15.90;;;14.07;;
79139;SDS011;68546;59.142;37.948;2023-03-13T01:21:26;15.73;;;13.25;;
79139;SDS011;68546;59.142;37.948;2023-03-13T01:23:53;14.43;;;12.40;;
79139;SDS011;68546;59.142;37.948;2023-03-13T01:26:20;13.60;;;12.20;;
79139;SDS011;68546;59.142;37.948;2023-03-13T01:28:48;14.75;;;12.70;;
79139;SDS011;68546;59.142;37.948;2023-03-13T01:31:20;14.52;;;12.35;;
79139;SDS011;68546;59.142;37.948;2023-03-13T01:33:56;15.50;;;12.88;;
79139;SDS011;68546;59.142;37.948;2023-03-13T01:36:24;16.27;;;13.88;;
79139;SDS011;68546;59.142;37.948;2023-03-13T01:38:52;14.02;;;12.50;;
79139;SDS011;68546;59.142;37.948;2023-03-13T01:41:21;14.48;;;12.10;;
79139;SDS011;68546;59.142;37.948;2023-03-13T01:43:48;15.23;;;12.47;;
79139;SDS011;68546;59.142;37.948;2023-03-13T01:46:16;16.55;;;12.32;;
79139;SDS011;68546;59.142;37.948;2023-03-13T01:49:04;16.08;;;13.57;;
79139;SDS011;68546;59.142;37.948;2023-03-13T01:51:51;18.10;;;15.37;;
79139;SDS011;68546;59.142;37.948;2023-03-13T01:54:23;16.73;;;14.48;;
79139;SDS011;68546;59.142;37.948;2023-03-13T01:57:02;16.70;;;13.50;;
79139;SDS011;68546;59.142;37.948;2023-03-13T01:59:36;16.58;;;14.15;;
79139;SDS011;68546;59.142;37.948;2023-03-13T02:02:07;16.40;;;14.60;;
79139;SDS011;68546;59.142;37.948;2023-03-13T02:04:35;15.57;;;13.38;;
79139;SDS011;68546;59.142;37.948;2023-03-13T02:07:11;16.65;;;13.93;;
79139;SDS011;68546;59.142;37.948;2023-03-13T02:09:42;15.53;;;13.23;;
79139;SDS011;68546;59.142;37.948;2023-03-13T02:12:26;15.38;;;13.32;;
79139;SDS011;68546;59.142;37.948;2023-03-13T02:15:02;15.65;;;13.52;;
79139;SDS011;68546;59.142;37.948;2023-03-13T02:17:31;19.63;;;13.97;;
79139;SDS011;68546;59.142;37.948;2023-03-13T02:20:01;13.50;;;12.02;;
79139;SDS011;68546;59.142;37.948;2023-03-13T02:23:30;13.27;;;11.43;;
79139;SDS011;68546;59.142;37.948;2023-03-13T02:30:46;15.23;;;13.32;;
79139;SDS011;68546;59.142;37.948;2023-03-13T02:33:14;13.02;;;11.65;;
79139;SDS011;68546;59.142;37.948;2023-03-13T02:35:43;14.10;;;11.80;;
79139;SDS011;68546;59.142;37.948;2023-03-13T02:38:14;12.18;;;10.85;;
79139;SDS011;68546;59.142;37.948;2023-03-13T02:40:45;12.73;;;11.10;;
79139;SDS011;68546;59.142;37.948;2023-03-13T02:43:19;11.80;;;10.53;;
79139;SDS011;68546;59.142;37.948;2023-03-13T02:48:41;13.65;;;12.20;;
79139;SDS011;68546;59.142;37.948;2023-03-13T02:51:15;13.00;;;11.32;;
79139;SDS011;68546;59.142;37.948;2023-03-13T02:53:54;14.23;;;12.60;;
79139;SDS011;68546;59.142;37.948;2023-03-13T02:56:26;13.00;;;11.15;;
79139;SDS011;68546;59.142;37.948;2023-03-13T02:58:55;12.38;;;10.52;;
79139;SDS011;68546;59.142;37.948;2023-03-13T03:01:24;11.60;;;10.37;;
79139;SDS011;68546;59.142;37.948;2023-03-13T03:03:51;11.25;;;9.48;;
79139;SDS011;68546;59.142;37.948;2023-03-13T03:06:17;11.30;;;9.57;;
79139;SDS011;68546;59.142;37.948;2023-03-13T03:08:45;11.33;;;9.63;;
79139;SDS011;68546;59.142;37.948;2023-03-13T03:11:13;10.95;;;9.48;;
79139;SDS011;68546;59.142;37.948;2023-03-13T03:13:41;11.38;;;9.73;;
79139;SDS011;68546;59.142;37.948;2023-03-13T03:16:11;13.82;;;9.75;;
79139;SDS011;68546;59.142;37.948;2023-03-13T03:18:40;11.98;;;10.70;;
79139;SDS011;68546;59.142;37.948;2023-03-13T03:21:06;11.57;;;10.05;;
79139;SDS011;68546;59.142;37.948;2023-03-13T03:23:37;11.80;;;9.82;;
79139;SDS011;68546;59.142;37.948;2023-03-13T03:26:05;11.57;;;10.03;;
79139;SDS011;68546;59.142;37.948;2023-03-13T03:28:35;11.70;;;9.85;;
79139;SDS011;68546;59.142;37.948;2023-03-13T03:31:06;12.07;;;10.15;;
79139;SDS011;68546;59.142;37.948;2023-03-13T03:33:36;11.97;;;10.30;;
79139;SDS011;68546;59.142;37.948;2023-03-13T03:36:07;10.05;;;9.00;;
79139;SDS011;68546;59.142;37.948;2023-03-13T03:38:38;11.13;;;9.77;;
79139;SDS011;68546;59.142;37.948;2023-03-13T03:41:08;11.57;;;9.88;;
79139;SDS011;68546;59.142;37.948;2023-03-13T03:43:35;11.35;;;10.15;;
79139;SDS011;68546;59.142;37.948;2023-03-13T03:46:05;11.65;;;9.73;;
79139;SDS011;68546;59.142;37.948;2023-03-13T03:48:31;11.10;;;9.30;;
79139;SDS011;68546;59.142;37.948;2023-03-13T03:50:59;11.10;;;9.27;;
79139;SDS011;68546;59.142;37.948;2023-03-13T03:53:26;8.93;;;8.02;;
79139;SDS011;68546;59.142;37.948;2023-03-13T03:55:53;10.98;;;8.82;;
79139;SDS011;68546;59.142;37.948;2023-03-13T03:58:20;9.20;;;8.23;;
79139;SDS011;68546;59.142;37.948;2023-03-13T04:00:59;9.70;;;8.65;;
79139;SDS011;68546;59.142;37.948;2023-03-13T04:03:26;10.23;;;7.95;;
79139;SDS011;68546;59.142;37.948;2023-03-13T04:05:53;9.18;;;7.72;;
79139;SDS011;68546;59.142;37.948;2023-03-13T04:08:22;9.52;;;7.68;;
79139;SDS011;68546;59.142;37.948;2023-03-13T04:10:48;7.18;;;6.43;;
79139;SDS011;68546;59.142;37.948;2023-03-13T04:13:16;7.32;;;6.22;;
79139;SDS011;68546;59.142;37.948;2023-03-13T04:15:43;7.53;;;6.23;;
79139;SDS011;68546;59.142;37.948;2023-03-13T04:18:10;6.63;;;5.78;;
79139;SDS011;68546;59.142;37.948;2023-03-13T04:20:37;6.13;;;5.35;;
79139;SDS011;68546;59.142;37.948;2023-03-13T04:23:04;8.47;;;6.53;;
79139;SDS011;68546;59.142;37.948;2023-03-13T04:25:30;5.95;;;5.30;;
79139;SDS011;68546;59.142;37.948;2023-03-13T04:27:59;6.10;;;5.05;;
79139;SDS011;68546;59.142;37.948;2023-03-13T04:30:33;6.07;;;5.03;;
79139;SDS011;68546;59.142;37.948;2023-03-13T04:33:18;8.02;;;6.47;;
79139;SDS011;68546;59.142;37.948;2023-03-13T04:36:04;6.50;;;5.15;;
79139;SDS011;68546;59.142;37.948;2023-03-13T04:38:57;6.85;;;5.65;;
79139;SDS011;68546;59.142;37.948;2023-03-13T04:41:52;8.83;;;6.10;;
79139;SDS011;68546;59.142;37.948;2023-03-13T04:44:39;5.57;;;4.57;;
79139;SDS011;68546;59.142;37.948;2023-03-13T04:47:35;6.00;;;4.70;;
79139;SDS011;68546;59.142;37.948;2023-03-13T04:50:15;5.13;;;4.17;;
79139;SDS011;68546;59.142;37.948;2023-03-13T04:53:04;5.68;;;4.20;;
79139;SDS011;68546;59.142;37.948;2023-03-13T04:55:52;5.25;;;4.25;;
79139;SDS011;68546;59.142;37.948;2023-03-13T04:58:42;5.65;;;4.38;;
79139;SDS011;68546;59.142;37.948;2023-03-13T05:01:33;6.47;;;4.68;;
79139;SDS011;68546;59.142;37.948;2023-03-13T05:04:19;5.32;;;3.90;;
79139;SDS011;68546;59.142;37.948;2023-03-13T05:06:53;5.47;;;3.63;;
79139;SDS011;68546;59.142;37.948;2023-03-13T05:09:39;4.23;;;2.67;;
79139;SDS011;68546;59.142;37.948;2023-03-13T05:12:20;4.13;;;2.58;;
79139;SDS011;68546;59.142;37.948;2023-03-13T05:14:57;3.55;;;2.22;;
79139;SDS011;68546;59.142;37.948;2023-03-13T05:17:46;4.93;;;2.47;;
79139;SDS011;68546;59.142;37.948;2023-03-13T05:20:28;4.05;;;2.35;;
79139;SDS011;68546;59.142;37.948;2023-03-13T05:23:06;2.17;;;1.20;;
79139;SDS011;68546;59.142;37.948;2023-03-13T05:25:48;3.15;;;1.55;;
79139;SDS011;68546;59.142;37.948;2023-03-13T05:28:36;4.78;;;2.40;;
79139;SDS011;68546;59.142;37.948;2023-03-13T05:31:28;4.95;;;2.60;;
79139;SDS011;68546;59.142;37.948;2023-03-13T05:34:15;3.03;;;1.45;;
79139;SDS011;68546;59.142;37.948;2023-03-13T05:37:00;3.20;;;1.83;;
79139;SDS011;68546;59.142;37.948;2023-03-13T05:39:37;2.55;;;1.33;;
79139;SDS011;68546;59.142;37.948;2023-03-13T05:42:17;2.65;;;1.33;;
79139;SDS011;68546;59.142;37.948;2023-03-13T05:45:10;3.47;;;1.43;;
79139;SDS011;68546;59.142;37.948;2023-03-13T05:48:00;3.80;;;2.05;;
79139;SDS011;68546;59.142;37.948;2023-03-13T05:50:27;3.60;;;1.48;;
79139;SDS011;68546;59.142;37.948;2023-03-13T05:53:14;2.95;;;1.60;;
79139;SDS011;68546;59.142;37.948;2023-03-13T05:55:59;4.03;;;1.40;;
79139;SDS011;68546;59.142;37.948;2023-03-13T05:58:45;3.60;;;1.50;;
79139;SDS011;68546;59.142;37.948;2023-03-13T06:01:33;3.28;;;1.17;;
79139;SDS011;68546;59.142;37.948;2023-03-13T06:04:12;2.47;;;1.20;;
79139;SDS011;68546;59.142;37.948;2023-03-13T06:06:40;2.92;;;1.13;;
79139;SDS011;68546;59.142;37.948;2023-03-13T06:09:08;3.13;;;1.42;;
79139;SDS011;68546;59.142;37.948;2023-03-13T06:11:39;2.37;;;0.97;;
79139;SDS011;68546;59.142;37.948;2023-03-13T06:14:07;3.25;;;1.23;;
79139;SDS011;68546;59.142;37.948;2023-03-13T06:16:55;2.38;;;0.82;;
79139;SDS011;68546;59.142;37.948;2023-03-13T06:19:22;2.58;;;1.08;;
79139;SDS011;68546;59.142;37.948;2023-03-13T06:21:50;3.10;;;1.08;;
79139;SDS011;68546;59.142;37.948;2023-03-13T06:24:17;3.20;;;1.23;;
79139;SDS011;68546;59.142;37.948;2023-03-13T06:26:46;2.25;;;0.98;;
79139;SDS011;68546;59.142;37.948;2023-03-13T06:29:14;2.80;;;1.17;;
79139;SDS011;68546;59.142;37.948;2023-03-13T06:31:42;3.00;;;1.25;;
79139;SDS011;68546;59.142;37.948;2023-03-13T06:34:12;2.53;;;1.00;;
79139;SDS011;68546;59.142;37.948;2023-03-13T06:36:39;4.43;;;1.57;;
79139;SDS011;68546;59.142;37.948;2023-03-13T06:39:05;3.38;;;1.20;;
79139;SDS011;68546;59.142;37.948;2023-03-13T06:41:33;5.40;;;0.90;;
79139;SDS011;68546;59.142;37.948;2023-03-13T06:43:59;2.08;;;0.82;;
79139;SDS011;68546;59.142;37.948;2023-03-13T06:46:26;3.33;;;1.23;;
79139;SDS011;68546;59.142;37.948;2023-03-13T06:48:52;6.35;;;1.23;;
79139;SDS011;68546;59.142;37.948;2023-03-13T06:51:20;3.25;;;1.13;;
79139;SDS011;68546;59.142;37.948;2023-03-13T06:53:47;2.80;;;1.03;;
79139;SDS011;68546;59.142;37.948;2023-03-13T06:56:13;3.38;;;1.20;;
79139;SDS011;68546;59.142;37.948;2023-03-13T06:58:40;2.75;;;0.95;;
79139;SDS011;68546;59.142;37.948;2023-03-13T07:01:07;4.67;;;1.43;;
79139;SDS011;68546;59.142;37.948;2023-03-13T07:03:35;3.15;;;1.38;;
79139;SDS011;68546;59.142;37.948;2023-03-13T07:06:02;3.58;;;1.42;;
79139;SDS011;68546;59.142;37.948;2023-03-13T07:08:30;4.18;;;1.15;;
79139;SDS011;68546;59.142;37.948;2023-03-13T07:10:58;2.55;;;1.08;;
79139;SDS011;68546;59.142;37.948;2023-03-13T07:13:26;3.17;;;1.17;;
79139;SDS011;68546;59.142;37.948;2023-03-13T07:15:53;3.03;;;1.23;;
79139;SDS011;68546;59.142;37.948;2023-03-13T07:18:21;2.33;;;0.80;;
79139;SDS011;68546;59.142;37.948;2023-03-13T07:20:53;2.70;;;0.98;;
79139;SDS011;68546;59.142;37.948;2023-03-13T07:23:22;3.13;;;1.17;;
79139;SDS011;68546;59.142;37.948;2023-03-13T07:25:51;1.93;;;0.80;;
79139;SDS011;68546;59.142;37.948;2023-03-13T07:28:22;2.67;;;0.88;;
79139;SDS011;68546;59.142;37.948;2023-03-13T07:30:49;2.40;;;0.90;;
79139;SDS011;68546;59.142;37.948;2023-03-13T07:33:16;2.70;;;1.02;;
79139;SDS011;68546;59.142;37.948;2023-03-13T07:35:48;3.72;;;1.13;;
79139;SDS011;68546;59.142;37.948;2023-03-13T07:38:17;3.97;;;1.45;;
79139;SDS011;68546;59.142;37.948;2023-03-13T07:40:52;3.58;;;1.15;;
79139;SDS011;68546;59.142;37.948;2023-03-13T07:43:22;3.13;;;1.13;;
79139;SDS011;68546;59.142;37.948;2023-03-13T07:45:53;3.60;;;1.08;;
79139;SDS011;68546;59.142;37.948;2023-03-13T07:48:22;2.42;;;0.93;;
79139;SDS011;68546;59.142;37.948;2023-03-13T07:50:50;3.30;;;0.87;;
79139;SDS011;68546;59.142;37.948;2023-03-13T07:53:17;4.32;;;1.38;;
79139;SDS011;68546;59.142;37.948;2023-03-13T07:56:07;2.85;;;0.85;;
79139;SDS011;68546;59.142;37.948;2023-03-13T07:58:38;3.58;;;1.08;;
79139;SDS011;68546;59.142;37.948;2023-03-13T08:03:53;3.65;;;1.48;;
79139;SDS011;68546;59.142;37.948;2023-03-13T08:06:25;3.28;;;0.88;;
79139;SDS011;68546;59.142;37.948;2023-03-13T08:08:56;2.43;;;0.73;;
79139;SDS011;68546;59.142;37.948;2023-03-13T08:11:24;4.97;;;1.55;;
79139;SDS011;68546;59.142;37.948;2023-03-13T08:13:52;3.03;;;0.85;;
79139;SDS011;68546;59.142;37.948;2023-03-13T08:16:30;2.03;;;0.60;;
79139;SDS011;68546;59.142;37.948;2023-03-13T08:19:01;2.58;;;0.90;;
79139;SDS011;68546;59.142;37.948;2023-03-13T08:21:31;2.35;;;0.60;;
79139;SDS011;68546;59.142;37.948;2023-03-13T08:24:02;3.30;;;0.95;;
79139;SDS011;68546;59.142;37.948;2023-03-13T08:26:32;3.20;;;1.02;;
79139;SDS011;68546;59.142;37.948;2023-03-13T08:29:00;3.22;;;0.93;;
79139;SDS011;68546;59.142;37.948;2023-03-13T08:31:35;3.45;;;1.08;;
79139;SDS011;68546;59.142;37.948;2023-03-13T08:34:04;2.53;;;0.93;;
79139;SDS011;68546;59.142;37.948;2023-03-13T08:36:31;2.45;;;0.65;;
79139;SDS011;68546;59.142;37.948;2023-03-13T08:39:01;2.40;;;0.90;;
79139;SDS011;68546;59.142;37.948;2023-03-13T08:41:36;3.50;;;1.20;;
79139;SDS011;68546;59.142;37.948;2023-03-13T08:44:05;2.63;;;0.60;;
79139;SDS011;68546;59.142;37.948;2023-03-13T08:46:33;2.63;;;0.75;;
79139;SDS011;68546;59.142;37.948;2023-03-13T08:49:03;3.00;;;0.93;;
79139;SDS011;68546;59.142;37.948;2023-03-13T08:51:33;3.33;;;0.90;;
79139;SDS011;68546;59.142;37.948;2023-03-13T08:54:01;2.30;;;0.73;;
79139;SDS011;68546;59.142;37.948;2023-03-13T08:56:29;4.75;;;1.05;;
79139;SDS011;68546;59.142;37.948;2023-03-13T08:59:00;4.17;;;0.87;;
79139;SDS011;68546;59.142;37.948;2023-03-13T09:01:30;2.10;;;0.65;;
79139;SDS011;68546;59.142;37.948;2023-03-13T09:03:58;2.90;;;0.88;;
79139;SDS011;68546;59.142;37.948;2023-03-13T09:06:25;2.53;;;0.67;;
79139;SDS011;68546;59.142;37.948;2023-03-13T09:08:55;2.47;;;0.60;;
79139;SDS011;68546;59.142;37.948;2023-03-13T09:11:23;4.13;;;1.00;;
79139;SDS011;68546;59.142;37.948;2023-03-13T09:13:50;3.92;;;0.85;;
79139;SDS011;68546;59.142;37.948;2023-03-13T09:16:21;3.80;;;1.13;;
79139;SDS011;68546;59.142;37.948;2023-03-13T09:18:50;3.03;;;0.93;;
79139;SDS011;68546;59.142;37.948;2023-03-13T09:21:19;3.05;;;1.20;;
79139;SDS011;68546;59.142;37.948;2023-03-13T09:23:49;11.13;;;1.23;;
79139;SDS011;68546;59.142;37.948;2023-03-13T09:26:18;3.08;;;0.82;;
79139;SDS011;68546;59.142;37.948;2023-03-13T09:28:46;2.05;;;0.60;;
79139;SDS011;68546;59.142;37.948;2023-03-13T09:31:23;4.50;;;0.87;;
79139;SDS011;68546;59.142;37.948;2023-03-13T09:33:53;4.38;;;1.55;;
79139;SDS011;68546;59.142;37.948;2023-03-13T09:36:21;5.72;;;1.02;;
79139;SDS011;68546;59.142;37.948;2023-03-13T09:38:55;4.18;;;0.93;;
79139;SDS011;68546;59.142;37.948;2023-03-13T09:41:24;2.85;;;0.95;;
79139;SDS011;68546;59.142;37.948;2023-03-13T09:44:02;3.42;;;0.90;;
79139;SDS011;68546;59.142;37.948;2023-03-13T09:52:27;3.90;;;1.27;;
79139;SDS011;68546;59.142;37.948;2023-03-13T10:00:53;5.15;;;0.63;;
79139;SDS011;68546;59.142;37.948;2023-03-13T10:03:28;2.47;;;0.82;;
79139;SDS011;68546;59.142;37.948;2023-03-13T10:06:00;1.83;;;0.60;;
79139;SDS011;68546;59.142;37.948;2023-03-13T10:08:32;10.00;;;0.90;;
79139;SDS011;68546;59.142;37.948;2023-03-13T10:11:04;1.30;;;0.40;;
79139;SDS011;68546;59.142;37.948;2023-03-13T10:13:40;1.80;;;0.50;;
79139;SDS011;68546;59.142;37.948;2023-03-13T10:16:23;3.00;;;0.80;;
79139;SDS011;68546;59.142;37.948;2023-03-13T10:18:58;2.35;;;0.60;;
79139;SDS011;68546;59.142;37.948;2023-03-13T10:21:33;2.88;;;0.60;;
79139;SDS011;68546;59.142;37.948;2023-03-13T10:24:09;3.87;;;0.50;;
79139;SDS011;68546;59.142;37.948;2023-03-13T10:26:44;6.65;;;1.02;;
79139;SDS011;68546;59.142;37.948;2023-03-13T10:29:31;3.38;;;0.73;;
79139;SDS011;68546;59.142;37.948;2023-03-13T10:31:58;1.90;;;0.50;;
79139;SDS011;68546;59.142;37.948;2023-03-13T10:35:12;3.67;;;0.85;;
79139;SDS011;68546;59.142;37.948;2023-03-13T10:37:24;3.22;;;0.95;;
79139;SDS011;68546;59.142;37.948;2023-03-13T10:40:40;5.00;;;1.00;;
79139;SDS011;68546;59.142;37.948;2023-03-13T10:42:49;6.10;;;0.70;;
79139;SDS011;68546;59.142;37.948;2023-03-13T10:45:19;1.67;;;0.50;;
79139;SDS011;68546;59.142;37.948;2023-03-13T10:48:10;2.72;;;0.75;;
79139;SDS011;68546;59.142;37.948;2023-03-13T10:50:45;2.70;;;0.83;;
79139;SDS011;68546;59.142;37.948;2023-03-13T10:53:19;13.02;;;1.10;;
79139;SDS011;68546;59.142;37.948;2023-03-13T10:55:51;3.58;;;0.60;;
79139;SDS011;68546;59.142;37.948;2023-03-13T10:58:22;2.10;;;0.63;;
79139;SDS011;68546;59.142;37.948;2023-03-13T11:01:16;6.93;;;1.08;;
79139;SDS011;68546;59.142;37.948;2023-03-13T11:03:46;3.22;;;1.00;;
79139;SDS011;68546;59.142;37.948;2023-03-13T11:06:25;2.13;;;0.55;;
79139;SDS011;68546;59.142;37.948;2023-03-13T11:09:02;3.80;;;0.93;;
79139;SDS011;68546;59.142;37.948;2023-03-13T11:11:46;2.53;;;0.60;;
79139;SDS011;68546;59.142;37.948;2023-03-13T11:14:21;5.18;;;0.70;;
79139;SDS011;68546;59.142;37.948;2023-03-13T11:16:51;2.20;;;0.53;;
79139;SDS011;68546;59.142;37.948;2023-03-13T11:19:28;3.75;;;0.68;;
79139;SDS011;68546;59.142;37.948;2023-03-13T11:22:16;2.38;;;0.60;;
79139;SDS011;68546;59.142;37.948;2023-03-13T11:27:37;1.48;;;0.43;;
79139;SDS011;68546;59.142;37.948;2023-03-13T11:33:26;2.22;;;0.63;;
79139;SDS011;68546;59.142;37.948;2023-03-13T11:36:01;0.97;;;0.40;;
79139;SDS011;68546;59.142;37.948;2023-03-13T11:38:35;5.32;;;0.60;;
79139;SDS011;68546;59.142;37.948;2023-03-13T11:41:21;3.75;;;0.95;;
79139;SDS011;68546;59.142;37.948;2023-03-13T11:46:36;4.57;;;1.00;;
79139;SDS011;68546;59.142;37.948;2023-03-13T11:51:54;1.95;;;0.73;;
79139;SDS011;68546;59.142;37.948;2023-03-13T11:57:06;2.00;;;0.60;;
79139;SDS011;68546;59.142;37.948;2023-03-13T12:02:25;1.40;;;0.63;;
79139;SDS011;68546;59.142;37.948;2023-03-13T12:04:59;2.58;;;0.75;;
79139;SDS011;68546;59.142;37.948;2023-03-13T12:07:33;2.30;;;0.77;;
79139;SDS011;68546;59.142;37.948;2023-03-13T12:10:11;3.87;;;1.50;;
79139;SDS011;68546;59.142;37.948;2023-03-13T12:15:21;1.48;;;0.43;;
79139;SDS011;68546;59.142;37.948;2023-03-13T12:18:30;1.98;;;0.57;;
79139;SDS011;68546;59.142;37.948;2023-03-13T12:21:11;2.13;;;0.63;;
79139;SDS011;68546;59.142;37.948;2023-03-13T12:24:12;4.82;;;0.68;;
79139;SDS011;68546;59.142;37.948;2023-03-13T12:32:18;1.90;;;0.60;;
79139;SDS011;68546;59.142;37.948;2023-03-13T12:37:38;1.93;;;0.50;;
79139;SDS011;68546;59.142;37.948;2023-03-13T12:40:15;2.08;;;0.70;;
79139;SDS011;68546;59.142;37.948;2023-03-13T12:42:56;1.52;;;0.38;;
79139;SDS011;68546;59.142;37.948;2023-03-13T12:45:30;2.10;;;0.73;;
79139;SDS011;68546;59.142;37.948;2023-03-13T12:51:19;2.33;;;0.70;;
79139;SDS011;68546;59.142;37.948;2023-03-13T12:57:23;2.63;;;0.87;;
79139;SDS011;68546;59.142;37.948;2023-03-13T12:59:55;1.65;;;0.68;;
79139;SDS011;68546;59.142;37.948;2023-03-13T13:02:26;2.08;;;0.60;;
79139;SDS011;68546;59.142;37.948;2023-03-13T13:04:55;2.37;;;0.80;;
79139;SDS011;68546;59.142;37.948;2023-03-13T13:07:24;2.38;;;0.52;;
79139;SDS011;68546;59.142;37.948;2023-03-13T13:12:43;2.00;;;0.82;;
79139;SDS011;68546;59.142;37.948;2023-03-13T13:20:41;1.83;;;0.63;;
79139;SDS011;68546;59.142;37.948;2023-03-13T13:25:50;3.22;;;0.82;;
79139;SDS011;68546;59.142;37.948;2023-03-13T13:30:46;2.30;;;0.80;;
79139;SDS011;68546;59.142;37.948;2023-03-13T13:33:33;2.78;;;0.70;;
79139;SDS011;68546;59.142;37.948;2023-03-13T13:38:37;1.55;;;0.60;;
79139;SDS011;68546;59.142;37.948;2023-03-13T13:51:35;2.95;;;0.95;;
79139;SDS011;68546;59.142;37.948;2023-03-13T13:56:59;2.43;;;0.80;;
79139;SDS011;68546;59.142;37.948;2023-03-13T13:59:38;2.13;;;0.60;;
79139;SDS011;68546;59.142;37.948;2023-03-13T14:04:35;1.42;;;0.70;;
79139;SDS011;68546;59.142;37.948;2023-03-13T14:07:05;2.28;;;0.75;;
79139;SDS011;68546;59.142;37.948;2023-03-13T14:09:57;4.82;;;0.90;;
79139;SDS011;68546;59.142;37.948;2023-03-13T14:12:34;1.88;;;0.60;;
79139;SDS011;68546;59.142;37.948;2023-03-13T14:17:39;2.38;;;0.75;;
79139;SDS011;68546;59.142;37.948;2023-03-13T14:22:55;2.97;;;0.80;;
79139;SDS011;68546;59.142;37.948;2023-03-13T14:25:25;2.35;;;0.73;;
79139;SDS011;68546;59.142;37.948;2023-03-13T14:27:53;2.75;;;0.70;;
79139;SDS011;68546;59.142;37.948;2023-03-13T14:30:20;2.22;;;0.70;;
79139;SDS011;68546;59.142;37.948;2023-03-13T14:32:48;2.40;;;0.75;;
79139;SDS011;68546;59.142;37.948;2023-03-13T14:35:16;2.88;;;0.82;;
79139;SDS011;68546;59.142;37.948;2023-03-13T14:37:46;2.55;;;0.73;;
79139;SDS011;68546;59.142;37.948;2023-03-13T14:42:47;2.85;;;0.98;;
79139;SDS011;68546;59.142;37.948;2023-03-13T14:45:23;1.98;;;0.73;;
79139;SDS011;68546;59.142;37.948;2023-03-13T14:48:01;4.53;;;1.20;;
79139;SDS011;68546;59.142;37.948;2023-03-13T14:50:39;3.22;;;1.13;;
79139;SDS011;68546;59.142;37.948;2023-03-13T14:53:12;1.95;;;0.65;;
79139;SDS011;68546;59.142;37.948;2023-03-13T14:55:46;1.67;;;0.63;;
79139;SDS011;68546;59.142;37.948;2023-03-13T15:00:49;2.33;;;0.77;;
79139;SDS011;68546;59.142;37.948;2023-03-13T15:05:42;3.00;;;1.13;;
79139;SDS011;68546;59.142;37.948;2023-03-13T15:08:14;1.95;;;0.82;;
79139;SDS011;68546;59.142;37.948;2023-03-13T15:10:43;1.13;;;0.57;;
79139;SDS011;68546;59.142;37.948;2023-03-13T15:13:16;2.20;;;0.97;;
79139;SDS011;68546;59.142;37.948;2023-03-13T15:15:50;1.65;;;0.65;;
79139;SDS011;68546;59.142;37.948;2023-03-13T15:18:18;2.30;;;0.75;;
79139;SDS011;68546;59.142;37.948;2023-03-13T15:20:53;3.30;;;1.38;;
79139;SDS011;68546;59.142;37.948;2023-03-13T15:23:22;2.65;;;0.85;;
79139;SDS011;68546;59.142;37.948;2023-03-13T15:25:49;1.63;;;0.75;;
79139;SDS011;68546;59.142;37.948;2023-03-13T15:28:16;2.42;;;0.70;;
79139;SDS011;68546;59.142;37.948;2023-03-13T15:30:45;3.07;;;1.17;;
79139;SDS011;68546;59.142;37.948;2023-03-13T15:33:13;2.80;;;1.13;;
79139;SDS011;68546;59.142;37.948;2023-03-13T15:35:44;2.53;;;0.82;;
79139;SDS011;68546;59.142;37.948;2023-03-13T15:38:14;2.60;;;1.07;;
79139;SDS011;68546;59.142;37.948;2023-03-13T15:40:42;1.48;;;0.57;;
79139;SDS011;68546;59.142;37.948;2023-03-13T15:43:10;2.95;;;1.08;;
79139;SDS011;68546;59.142;37.948;2023-03-13T15:45:39;2.00;;;0.77;;
79139;SDS011;68546;59.142;37.948;2023-03-13T15:48:15;2.05;;;0.80;;
79139;SDS011;68546;59.142;37.948;2023-03-13T15:50:43;2.38;;;0.82;;
79139;SDS011;68546;59.142;37.948;2023-03-13T15:53:29;1.85;;;0.90;;
79139;SDS011;68546;59.142;37.948;2023-03-13T15:55:58;2.03;;;0.80;;
79139;SDS011;68546;59.142;37.948;2023-03-13T15:58:26;2.47;;;0.73;;
79139;SDS011;68546;59.142;37.948;2023-03-13T16:00:53;3.20;;;0.95;;
79139;SDS011;68546;59.142;37.948;2023-03-13T16:03:22;2.43;;;0.97;;
79139;SDS011;68546;59.142;37.948;2023-03-13T16:05:53;2.05;;;0.77;;
79139;SDS011;68546;59.142;37.948;2023-03-13T16:08:22;4.78;;;1.38;;
79139;SDS011;68546;59.142;37.948;2023-03-13T16:10:50;2.03;;;0.85;;
79139;SDS011;68546;59.142;37.948;2023-03-13T16:13:17;3.25;;;1.05;;
79139;SDS011;68546;59.142;37.948;2023-03-13T16:15:44;2.33;;;0.93;;
79139;SDS011;68546;59.142;37.948;2023-03-13T16:18:18;2.80;;;0.85;;
79139;SDS011;68546;59.142;37.948;2023-03-13T16:20:46;2.10;;;0.87;;
79139;SDS011;68546;59.142;37.948;2023-03-13T16:23:12;2.30;;;0.90;;
79139;SDS011;68546;59.142;37.948;2023-03-13T16:25:39;1.67;;;0.82;;
79139;SDS011;68546;59.142;37.948;2023-03-13T16:28:06;2.70;;;0.87;;
79139;SDS011;68546;59.142;37.948;2023-03-13T16:30:36;2.85;;;0.95;;
79139;SDS011;68546;59.142;37.948;2023-03-13T16:33:06;1.55;;;0.63;;
79139;SDS011;68546;59.142;37.948;2023-03-13T16:35:33;2.45;;;0.85;;
79139;SDS011;68546;59.142;37.948;2023-03-13T16:37:59;2.75;;;0.95;;
79139;SDS011;68546;59.142;37.948;2023-03-13T16:40:28;2.35;;;0.95;;
79139;SDS011;68546;59.142;37.948;2023-03-13T16:42:58;2.38;;;0.90;;